sensor_id;sensor_type;location;lat;lon;timestamp;pressure;altitude;pressure_sealevel;temperature;humidity
4598;BME280;62772;48.646;8.906;2023-04-28T00:01:03;96100.66;;;9.76;100.00
4598;BME280;62772;48.646;8.906;2023-04-28T00:06:03;96107.28;;;9.48;100.00
4598;BME280;62772;48.646;8.906;2023-04-28T00:11:08;96105.81;;;9.33;100.00
4598;BME280;62772;48.646;8.906;2023-04-28T00:16:09;96101.41;;;9.28;100.00
4598;BME280;62772;48.646;8.906;2023-04-28T00:21:09;96101.22;;;8.93;100.00
4598;BME280;62772;48.646;8.906;2023-04-28T00:26:10;96091.06;;;9.26;100.00
4598;BME280;62772;48.646;8.906;2023-04-28T00:31:13;96083.47;;;9.51;100.00
4598;BME280;62772;48.646;8.906;2023-04-28T00:36:15;96083.88;;;9.04;100.00
4598;BME280;62772;48.646;8.906;2023-04-28T00:41:15;96070.47;;;9.50;100.00
4598;BME280;62772;48.646;8.906;2023-04-28T00:46:29;96070.38;;;9.72;100.00
4598;BME280;62772;48.646;8.906;2023-04-28T00:51:31;96069.97;;;10.14;100.00
4598;BME280;62772;48.646;8.906;2023-04-28T00:56:33;96075.72;;;9.72;100.00
4598;BME280;62772;48.646;8.906;2023-04-28T01:01:34;96064.94;;;9.37;100.00
4598;BME280;62772;48.646;8.906;2023-04-28T01:06:35;96057.84;;;9.01;100.00
4598;BME280;62772;48.646;8.906;2023-04-28T01:11:36;96060.78;;;8.91;100.00
4598;BME280;62772;48.646;8.906;2023-04-28T01:16:44;96047.72;;;9.43;100.00
4598;BME280;62772;48.646;8.906;2023-04-28T01:21:45;96045.00;;;9.35;100.00
4598;BME280;62772;48.646;8.906;2023-04-28T01:26:55;96042.53;;;10.13;100.00
4598;BME280;62772;48.646;8.906;2023-04-28T01:31:56;96041.22;;;9.85;100.00
4598;BME280;62772;48.646;8.906;2023-04-28T01:36:56;96040.13;;;9.77;100.00
4598;BME280;62772;48.646;8.906;2023-04-28T01:41:57;96030.97;;;9.60;100.00
4598;BME280;62772;48.646;8.906;2023-04-28T01:46:57;96025.66;;;9.12;100.00
4598;BME280;62772;48.646;8.906;2023-04-28T01:51:58;96025.28;;;9.44;100.00
4598;BME280;62772;48.646;8.906;2023-04-28T01:56:58;96016.16;;;9.37;100.00
4598;BME280;62772;48.646;8.906;2023-04-28T02:02:00;96014.97;;;9.52;100.00
4598;BME280;62772;48.646;8.906;2023-04-28T02:07:01;96018.59;;;9.65;100.00
4598;BME280;62772;48.646;8.906;2023-04-28T02:12:01;96010.13;;;9.71;100.00
4598;BME280;62772;48.646;8.906;2023-04-28T02:17:02;96000.41;;;9.75;100.00
4598;BME280;62772;48.646;8.906;2023-04-28T02:22:06;96000.19;;;9.54;100.00
4598;BME280;62772;48.646;8.906;2023-04-28T02:27:07;96004.78;;;9.62;100.00
4598;BME280;62772;48.646;8.906;2023-04-28T02:32:07;96003.72;;;9.90;100.00
4598;BME280;62772;48.646;8.906;2023-04-28T02:37:08;95997.59;;;9.80;100.00
4598;BME280;62772;48.646;8.906;2023-04-28T02:42:08;95989.72;;;9.67;100.00
4598;BME280;62772;48.646;8.906;2023-04-28T02:47:09;96002.31;;;10.10;100.00
4598;BME280;62772;48.646;8.906;2023-04-28T02:52:09;96002.78;;;9.86;100.00
4598;BME280;62772;48.646;8.906;2023-04-28T02:57:10;96008.59;;;10.05;100.00
4598;BME280;62772;48.646;8.906;2023-04-28T03:02:10;96005.47;;;9.94;100.00
4598;BME280;62772;48.646;8.906;2023-04-28T03:07:12;96002.31;;;9.84;100.00
4598;BME280;62772;48.646;8.906;2023-04-28T03:12:12;96002.44;;;9.70;100.00
4598;BME280;62772;48.646;8.906;2023-04-28T03:17:13;95990.34;;;9.63;100.00
4598;BME280;62772;48.646;8.906;2023-04-28T03:22:13;95991.47;;;9.71;100.00
4598;BME280;62772;48.646;8.906;2023-04-28T03:27:14;95984.88;;;9.60;100.00
4598;BME280;62772;48.646;8.906;2023-04-28T03:32:15;95991.94;;;9.65;100.00
4598;BME280;62772;48.646;8.906;2023-04-28T03:37:15;95983.31;;;9.68;100.00
4598;BME280;62772;48.646;8.906;2023-04-28T03:42:16;95979.72;;;9.90;100.00
4598;BME280;62772;48.646;8.906;2023-04-28T03:47:37;95971.53;;;9.69;100.00
4598;BME280;62772;48.646;8.906;2023-04-28T03:52:37;95965.88;;;9.70;100.00
4598;BME280;62772;48.646;8.906;2023-04-28T03:57:40;95974.16;;;9.42;100.00
4598;BME280;62772;48.646;8.906;2023-04-28T04:02:41;95979.38;;;9.65;100.00
4598;BME280;62772;48.646;8.906;2023-04-28T04:07:42;95958.84;;;9.66;100.00
4598;BME280;62772;48.646;8.906;2023-04-28T04:12:42;95963.22;;;9.88;100.00
4598;BME280;62772;48.646;8.906;2023-04-28T04:17:43;95955.41;;;9.91;100.00
4598;BME280;62772;48.646;8.906;2023-04-28T04:22:43;95951.16;;;10.16;100.00
4598;BME280;62772;48.646;8.906;2023-04-28T04:27:44;95952.72;;;10.17;100.00
4598;BME280;62772;48.646;8.906;2023-04-28T04:32:44;95947.53;;;10.12;100.00
4598;BME280;62772;48.646;8.906;2023-04-28T04:37:46;95950.38;;;10.25;100.00
4598;BME280;62772;48.646;8.906;2023-04-28T04:42:46;95938.75;;;10.21;100.00
4598;BME280;62772;48.646;8.906;2023-04-28T04:47:51;95933.41;;;10.21;100.00
4598;BME280;62772;48.646;8.906;2023-04-28T04:52:52;95929.47;;;10.27;100.00
4598;BME280;62772;48.646;8.906;2023-04-28T04:57:56;95937.50;;;10.09;100.00
4598;BME280;62772;48.646;8.906;2023-04-28T05:03:03;95934.84;;;10.01;100.00
4598;BME280;62772;48.646;8.906;2023-04-28T05:08:05;95932.94;;;9.92;100.00
4598;BME280;62772;48.646;8.906;2023-04-28T05:13:06;95931.72;;;9.72;100.00
4598;BME280;62772;48.646;8.906;2023-04-28T05:18:06;95936.09;;;9.94;100.00
4598;BME280;62772;48.646;8.906;2023-04-28T05:23:10;95939.38;;;10.00;100.00
4598;BME280;62772;48.646;8.906;2023-04-28T05:28:10;95940.03;;;10.06;100.00
4598;BME280;62772;48.646;8.906;2023-04-28T05:33:11;95938.59;;;9.91;100.00
4598;BME280;62772;48.646;8.906;2023-04-28T05:38:12;95941.44;;;10.03;100.00
4598;BME280;62772;48.646;8.906;2023-04-28T05:43:12;95936.75;;;9.91;100.00
4598;BME280;62772;48.646;8.906;2023-04-28T05:48:13;95938.31;;;9.84;100.00
4598;BME280;62772;48.646;8.906;2023-04-28T05:53:14;95936.41;;;9.93;100.00
4598;BME280;62772;48.646;8.906;2023-04-28T05:58:15;95935.31;;;10.03;100.00
4598;BME280;62772;48.646;8.906;2023-04-28T06:03:16;95929.97;;;9.94;100.00
4598;BME280;62772;48.646;8.906;2023-04-28T06:08:19;95926.50;;;10.02;100.00
4598;BME280;62772;48.646;8.906;2023-04-28T06:13:19;95927.59;;;10.19;100.00
4598;BME280;62772;48.646;8.906;2023-04-28T06:18:20;95925.25;;;10.17;100.00
4598;BME280;62772;48.646;8.906;2023-04-28T06:23:20;95930.09;;;10.24;100.00
4598;BME280;62772;48.646;8.906;2023-04-28T06:28:24;95920.41;;;10.10;100.00
4598;BME280;62772;48.646;8.906;2023-04-28T06:33:26;95919.91;;;10.34;100.00
4598;BME280;62772;48.646;8.906;2023-04-28T06:38:27;95921.94;;;10.29;100.00
4598;BME280;62772;48.646;8.906;2023-04-28T06:43:27;95918.34;;;10.25;100.00
4598;BME280;62772;48.646;8.906;2023-04-28T06:48:47;95917.53;;;10.42;100.00
4598;BME280;62772;48.646;8.906;2023-04-28T06:53:50;95915.97;;;10.41;100.00
4598;BME280;62772;48.646;8.906;2023-04-28T06:58:54;95919.56;;;10.45;100.00
4598;BME280;62772;48.646;8.906;2023-04-28T07:03:54;95904.94;;;10.51;100.00
4598;BME280;62772;48.646;8.906;2023-04-28T07:08:55;95895.81;;;10.61;100.00
4598;BME280;62772;48.646;8.906;2023-04-28T07:13:55;95897.00;;;10.72;100.00
4598;BME280;62772;48.646;8.906;2023-04-28T07:18:56;95899.88;;;10.67;100.00
4598;BME280;62772;48.646;8.906;2023-04-28T07:23:56;95902.84;;;10.74;100.00
4598;BME280;62772;48.646;8.906;2023-04-28T07:28:56;95904.25;;;10.71;100.00
4598;BME280;62772;48.646;8.906;2023-04-28T07:33:57;95900.50;;;10.64;100.00
4598;BME280;62772;48.646;8.906;2023-04-28T07:38:59;95898.44;;;10.69;100.00
4598;BME280;62772;48.646;8.906;2023-04-28T07:44:00;95898.88;;;10.80;100.00
4598;BME280;62772;48.646;8.906;2023-04-28T07:49:01;95898.59;;;10.73;100.00
4598;BME280;62772;48.646;8.906;2023-04-28T07:54:02;95908.13;;;10.83;100.00
4598;BME280;62772;48.646;8.906;2023-04-28T07:59:02;95913.16;;;10.84;100.00
4598;BME280;62772;48.646;8.906;2023-04-28T08:04:03;95918.22;;;10.77;100.00
4598;BME280;62772;48.646;8.906;2023-04-28T08:09:03;95924.38;;;10.69;100.00
4598;BME280;62772;48.646;8.906;2023-04-28T08:14:05;95935.41;;;10.97;100.00
4598;BME280;62772;48.646;8.906;2023-04-28T08:19:06;95932.09;;;11.00;100.00
4598;BME280;62772;48.646;8.906;2023-04-28T08:24:06;95941.94;;;11.17;100.00
4598;BME280;62772;48.646;8.906;2023-04-28T08:29:09;95936.13;;;11.15;100.00
4598;BME280;62772;48.646;8.906;2023-04-28T08:34:10;95937.69;;;11.46;100.00
4598;BME280;62772;48.646;8.906;2023-04-28T08:39:11;95944.94;;;11.46;100.00
4598;BME280;62772;48.646;8.906;2023-04-28T08:44:11;95947.72;;;11.49;100.00
4598;BME280;62772;48.646;8.906;2023-04-28T08:49:14;95950.81;;;11.60;100.00
4598;BME280;62772;48.646;8.906;2023-04-28T08:54:18;95960.34;;;11.70;100.00
4598;BME280;62772;48.646;8.906;2023-04-28T08:59:19;95962.28;;;11.60;100.00
4598;BME280;62772;48.646;8.906;2023-04-28T09:04:20;95974.09;;;11.59;100.00
4598;BME280;62772;48.646;8.906;2023-04-28T09:09:21;95968.13;;;11.84;100.00
4598;BME280;62772;48.646;8.906;2023-04-28T09:14:22;95981.91;;;11.94;100.00
4598;BME280;62772;48.646;8.906;2023-04-28T09:19:24;95983.28;;;12.22;100.00
4598;BME280;62772;48.646;8.906;2023-04-28T09:24:36;95983.19;;;12.30;100.00
4598;BME280;62772;48.646;8.906;2023-04-28T09:29:51;95984.47;;;12.45;100.00
4598;BME280;62772;48.646;8.906;2023-04-28T09:34:53;95986.09;;;12.59;100.00
4598;BME280;62772;48.646;8.906;2023-04-28T09:39:57;95983.63;;;12.66;100.00
4598;BME280;62772;48.646;8.906;2023-04-28T09:45:04;95986.72;;;12.89;100.00
4598;BME280;62772;48.646;8.906;2023-04-28T09:50:07;95976.47;;;13.03;100.00
4598;BME280;62772;48.646;8.906;2023-04-28T09:55:11;95967.22;;;13.25;100.00
4598;BME280;62772;48.646;8.906;2023-04-28T10:00:12;95977.75;;;13.43;100.00
4598;BME280;62772;48.646;8.906;2023-04-28T10:05:15;95980.28;;;13.52;100.00
4598;BME280;62772;48.646;8.906;2023-04-28T10:10:15;95979.63;;;13.67;100.00
4598;BME280;62772;48.646;8.906;2023-04-28T10:15:16;95978.38;;;13.77;100.00
4598;BME280;62772;48.646;8.906;2023-04-28T10:20:16;95982.47;;;13.87;100.00
4598;BME280;62772;48.646;8.906;2023-04-28T10:25:25;95981.38;;;13.88;100.00
4598;BME280;62772;48.646;8.906;2023-04-28T10:30:26;95986.72;;;14.00;100.00
4598;BME280;62772;48.646;8.906;2023-04-28T10:40:36;95980.53;;;14.12;100.00
4598;BME280;62772;48.646;8.906;2023-04-28T10:56:06;95974.53;;;14.31;100.00
4598;BME280;62772;48.646;8.906;2023-04-28T11:06:30;95974.88;;;14.29;100.00
4598;BME280;62772;48.646;8.906;2023-04-28T11:11:33;95978.66;;;14.57;100.00
4598;BME280;62772;48.646;8.906;2023-04-28T11:16:47;95978.56;;;14.65;100.00
4598;BME280;62772;48.646;8.906;2023-04-28T11:21:48;95973.63;;;14.83;100.00
4598;BME280;62772;48.646;8.906;2023-04-28T11:26:49;95967.13;;;14.84;100.00
4598;BME280;62772;48.646;8.906;2023-04-28T11:31:50;95974.88;;;15.02;100.00
4598;BME280;62772;48.646;8.906;2023-04-28T11:36:50;95973.38;;;15.20;100.00
4598;BME280;62772;48.646;8.906;2023-04-28T11:41:51;95968.44;;;15.38;100.00
4598;BME280;62772;48.646;8.906;2023-04-28T11:46:56;95963.38;;;15.53;100.00
4598;BME280;62772;48.646;8.906;2023-04-28T11:52:06;95959.84;;;15.68;100.00
4598;BME280;62772;48.646;8.906;2023-04-28T11:57:16;95964.75;;;15.63;100.00
4598;BME280;62772;48.646;8.906;2023-04-28T12:02:26;95959.81;;;15.49;100.00
4598;BME280;62772;48.646;8.906;2023-04-28T12:07:28;95963.53;;;15.60;100.00
4598;BME280;62772;48.646;8.906;2023-04-28T12:12:30;95959.69;;;15.77;100.00
4598;BME280;62772;48.646;8.906;2023-04-28T12:17:36;95966.25;;;15.95;100.00
4598;BME280;62772;48.646;8.906;2023-04-28T12:22:45;95974.81;;;16.21;100.00
4598;BME280;62772;48.646;8.906;2023-04-28T12:28:03;95976.09;;;16.07;100.00
4598;BME280;62772;48.646;8.906;2023-04-28T12:33:04;95970.38;;;16.09;100.00
4598;BME280;62772;48.646;8.906;2023-04-28T12:38:05;95968.03;;;16.07;100.00
4598;BME280;62772;48.646;8.906;2023-04-28T12:43:05;95978.16;;;15.94;100.00
4598;BME280;62772;48.646;8.906;2023-04-28T12:48:05;95971.56;;;16.11;100.00
4598;BME280;62772;48.646;8.906;2023-04-28T12:53:06;95963.28;;;16.01;100.00
4598;BME280;62772;48.646;8.906;2023-04-28T12:58:07;95965.44;;;15.95;100.00
4598;BME280;62772;48.646;8.906;2023-04-28T13:03:07;95964.47;;;16.03;100.00
4598;BME280;62772;48.646;8.906;2023-04-28T13:08:08;95973.13;;;16.12;100.00
4598;BME280;62772;48.646;8.906;2023-04-28T13:13:08;95958.09;;;16.31;100.00
4598;BME280;62772;48.646;8.906;2023-04-28T13:18:09;95954.91;;;16.25;100.00
4598;BME280;62772;48.646;8.906;2023-04-28T13:23:09;95943.41;;;16.28;100.00
4598;BME280;62772;48.646;8.906;2023-04-28T13:28:09;95944.63;;;15.92;100.00
4598;BME280;62772;48.646;8.906;2023-04-28T13:33:10;95957.78;;;15.77;100.00
4598;BME280;62772;48.646;8.906;2023-04-28T13:38:11;95955.44;;;15.60;100.00
4598;BME280;62772;48.646;8.906;2023-04-28T13:43:11;95939.16;;;15.53;100.00
4598;BME280;62772;48.646;8.906;2023-04-28T13:48:12;95951.06;;;15.36;100.00
4598;BME280;62772;48.646;8.906;2023-04-28T13:53:12;95941.72;;;15.65;100.00
4598;BME280;62772;48.646;8.906;2023-04-28T13:58:13;95935.03;;;15.75;100.00
4598;BME280;62772;48.646;8.906;2023-04-28T14:03:13;95947.31;;;15.56;100.00
4598;BME280;62772;48.646;8.906;2023-04-28T14:08:15;95957.16;;;15.01;100.00
4598;BME280;62772;48.646;8.906;2023-04-28T14:13:17;95947.00;;;15.10;100.00
4598;BME280;62772;48.646;8.906;2023-04-28T14:18:18;95948.81;;;15.22;100.00
4598;BME280;62772;48.646;8.906;2023-04-28T14:23:18;95940.94;;;15.13;100.00
4598;BME280;62772;48.646;8.906;2023-04-28T14:28:19;95913.34;;;15.16;100.00
4598;BME280;62772;48.646;8.906;2023-04-28T14:33:20;95920.91;;;14.79;100.00
4598;BME280;62772;48.646;8.906;2023-04-28T14:38:21;95913.25;;;14.97;100.00
4598;BME280;62772;48.646;8.906;2023-04-28T14:43:22;95926.47;;;14.86;100.00
4598;BME280;62772;48.646;8.906;2023-04-28T14:48:23;95917.34;;;14.75;100.00
4598;BME280;62772;48.646;8.906;2023-04-28T14:53:23;95902.97;;;14.83;100.00
4598;BME280;62772;48.646;8.906;2023-04-28T14:58:24;95910.56;;;14.65;100.00
4598;BME280;62772;48.646;8.906;2023-04-28T15:03:24;95920.13;;;14.06;100.00
4598;BME280;62772;48.646;8.906;2023-04-28T15:08:25;95908.69;;;14.65;100.00
4598;BME280;62772;48.646;8.906;2023-04-28T15:13:25;95907.22;;;14.40;100.00
4598;BME280;62772;48.646;8.906;2023-04-28T15:18:27;95907.53;;;14.22;100.00
4598;BME280;62772;48.646;8.906;2023-04-28T15:23:28;95895.91;;;14.18;100.00
4598;BME280;62772;48.646;8.906;2023-04-28T15:28:28;95907.53;;;14.66;100.00
4598;BME280;62772;48.646;8.906;2023-04-28T15:33:28;95900.78;;;14.73;100.00
4598;BME280;62772;48.646;8.906;2023-04-28T15:38:29;95892.56;;;14.81;100.00
4598;BME280;62772;48.646;8.906;2023-04-28T15:43:30;95886.19;;;15.21;100.00
4598;BME280;62772;48.646;8.906;2023-04-28T15:48:31;95885.91;;;15.27;100.00
4598;BME280;62772;48.646;8.906;2023-04-28T15:53:32;95882.22;;;14.83;100.00
4598;BME280;62772;48.646;8.906;2023-04-28T15:58:32;95893.97;;;14.47;100.00
4598;BME280;62772;48.646;8.906;2023-04-28T16:03:33;95885.66;;;14.52;100.00
4598;BME280;62772;48.646;8.906;2023-04-28T16:08:36;95864.44;;;14.79;100.00
4598;BME280;62772;48.646;8.906;2023-04-28T16:13:37;95868.31;;;15.13;100.00
4598;BME280;62772;48.646;8.906;2023-04-28T16:18:38;95866.84;;;15.00;100.00
4598;BME280;62772;48.646;8.906;2023-04-28T16:23:38;95875.69;;;15.16;100.00
4598;BME280;62772;48.646;8.906;2023-04-28T16:28:39;95881.25;;;15.08;100.00
4598;BME280;62772;48.646;8.906;2023-04-28T16:33:39;95889.94;;;14.85;100.00
4598;BME280;62772;48.646;8.906;2023-04-28T16:38:39;95874.84;;;14.80;100.00
4598;BME280;62772;48.646;8.906;2023-04-28T16:59:45;95896.00;;;14.82;100.00
4598;BME280;62772;48.646;8.906;2023-04-28T17:04:45;95893.81;;;15.19;100.00
4598;BME280;62772;48.646;8.906;2023-04-28T17:09:46;95884.25;;;15.22;100.00
4598;BME280;62772;48.646;8.906;2023-04-28T17:14:46;95880.75;;;15.37;100.00
4598;BME280;62772;48.646;8.906;2023-04-28T17:19:47;95865.63;;;15.68;100.00
4598;BME280;62772;48.646;8.906;2023-04-28T17:24:47;95867.84;;;16.21;100.00
4598;BME280;62772;48.646;8.906;2023-04-28T17:29:48;95873.75;;;17.80;100.00
4598;BME280;62772;48.646;8.906;2023-04-28T17:34:49;95871.69;;;18.34;100.00
4598;BME280;62772;48.646;8.906;2023-04-28T17:39:50;95877.38;;;17.61;100.00
4598;BME280;62772;48.646;8.906;2023-04-28T17:44:51;95882.97;;;16.49;100.00
4598;BME280;62772;48.646;8.906;2023-04-28T17:49:51;95884.44;;;15.84;100.00
4598;BME280;62772;48.646;8.906;2023-04-28T17:54:52;95886.25;;;15.76;100.00
4598;BME280;62772;48.646;8.906;2023-04-28T17:59:53;95888.31;;;15.67;100.00
4598;BME280;62772;48.646;8.906;2023-04-28T18:04:53;95887.06;;;15.10;100.00
4598;BME280;62772;48.646;8.906;2023-04-28T18:09:54;95883.06;;;15.19;100.00
4598;BME280;62772;48.646;8.906;2023-04-28T18:14:56;95890.13;;;15.44;100.00
4598;BME280;62772;48.646;8.906;2023-04-28T18:19:57;95899.34;;;15.27;100.00
4598;BME280;62772;48.646;8.906;2023-04-28T18:24:57;95915.19;;;14.96;100.00
4598;BME280;62772;48.646;8.906;2023-04-28T18:29:59;95921.50;;;14.72;100.00
4598;BME280;62772;48.646;8.906;2023-04-28T18:35:00;95922.63;;;15.03;100.00
4598;BME280;62772;48.646;8.906;2023-04-28T18:40:00;95921.09;;;14.86;100.00
4598;BME280;62772;48.646;8.906;2023-04-28T18:45:01;95932.00;;;15.09;100.00
4598;BME280;62772;48.646;8.906;2023-04-28T18:50:03;95937.19;;;14.26;100.00
4598;BME280;62772;48.646;8.906;2023-04-28T18:55:04;95946.47;;;14.44;100.00
4598;BME280;62772;48.646;8.906;2023-04-28T19:00:05;95941.09;;;14.44;100.00
4598;BME280;62772;48.646;8.906;2023-04-28T19:05:06;95948.75;;;14.58;100.00
4598;BME280;62772;48.646;8.906;2023-04-28T19:10:07;95947.44;;;14.52;100.00
4598;BME280;62772;48.646;8.906;2023-04-28T19:15:07;95958.19;;;14.52;100.00
4598;BME280;62772;48.646;8.906;2023-04-28T19:20:08;95958.19;;;14.52;100.00
4598;BME280;62772;48.646;8.906;2023-04-28T19:25:10;95976.16;;;14.48;100.00
4598;BME280;62772;48.646;8.906;2023-04-28T19:30:12;95970.13;;;14.39;100.00
4598;BME280;62772;48.646;8.906;2023-04-28T19:35:13;95967.84;;;14.25;100.00
4598;BME280;62772;48.646;8.906;2023-04-28T19:40:13;95972.47;;;13.71;100.00
4598;BME280;62772;48.646;8.906;2023-04-28T19:45:16;95980.28;;;13.27;100.00
4598;BME280;62772;48.646;8.906;2023-04-28T19:50:17;95986.72;;;12.89;100.00
4598;BME280;62772;48.646;8.906;2023-04-28T19:55:18;95985.88;;;13.59;100.00
4598;BME280;62772;48.646;8.906;2023-04-28T20:00:21;95997.13;;;12.91;100.00
4598;BME280;62772;48.646;8.906;2023-04-28T20:05:23;95997.38;;;12.64;100.00
4598;BME280;62772;48.646;8.906;2023-04-28T20:10:24;95993.66;;;12.02;100.00
4598;BME280;62772;48.646;8.906;2023-04-28T20:15:24;95989.19;;;11.85;100.00
4598;BME280;62772;48.646;8.906;2023-04-28T20:20:25;96007.41;;;11.71;100.00
4598;BME280;62772;48.646;8.906;2023-04-28T20:25:25;96008.78;;;12.40;100.00
4598;BME280;62772;48.646;8.906;2023-04-28T20:30:27;95994.13;;;12.25;100.00
4598;BME280;62772;48.646;8.906;2023-04-28T20:35:27;95998.50;;;12.30;100.00
4598;BME280;62772;48.646;8.906;2023-04-28T20:40:28;95991.41;;;11.83;100.00
4598;BME280;62772;48.646;8.906;2023-04-28T20:45:32;95984.63;;;11.65;100.00
4598;BME280;62772;48.646;8.906;2023-04-28T20:50:36;95986.91;;;11.15;100.00
4598;BME280;62772;48.646;8.906;2023-04-28T20:55:37;95995.06;;;11.19;100.00
4598;BME280;62772;48.646;8.906;2023-04-28T21:00:38;96001.69;;;11.13;100.00
4598;BME280;62772;48.646;8.906;2023-04-28T21:05:44;96002.72;;;11.59;100.00
4598;BME280;62772;48.646;8.906;2023-04-28T21:10:45;96013.56;;;11.33;100.00
4598;BME280;62772;48.646;8.906;2023-04-28T21:15:47;95996.00;;;12.04;100.00
4598;BME280;62772;48.646;8.906;2023-04-28T21:20:47;96009.97;;;11.58;100.00
4598;BME280;62772;48.646;8.906;2023-04-28T21:25:48;96013.59;;;11.84;100.00
4598;BME280;62772;48.646;8.906;2023-04-28T21:30:50;96003.94;;;11.91;100.00
4598;BME280;62772;48.646;8.906;2023-04-28T21:35:51;96012.03;;;11.53;100.00
4598;BME280;62772;48.646;8.906;2023-04-28T21:40:52;96006.69;;;11.53;100.00
4598;BME280;62772;48.646;8.906;2023-04-28T21:45:53;96018.22;;;11.44;100.00
4598;BME280;62772;48.646;8.906;2023-04-28T21:50:53;96015.13;;;11.34;100.00
4598;BME280;62772;48.646;8.906;2023-04-28T21:55:53;96013.50;;;11.41;100.00
4598;BME280;62772;48.646;8.906;2023-04-28T22:00:54;96020.38;;;11.81;100.00
4598;BME280;62772;48.646;8.906;2023-04-28T22:05:55;96022.94;;;11.77;100.00
4598;BME280;62772;48.646;8.906;2023-04-28T22:10:55;96022.56;;;11.28;100.00
4598;BME280;62772;48.646;8.906;2023-04-28T22:15:56;96007.09;;;11.64;100.00
4598;BME280;62772;48.646;8.906;2023-04-28T22:20:58;96004.97;;;11.78;100.00
4598;BME280;62772;48.646;8.906;2023-04-28T22:26:00;96009.88;;;11.76;100.00
4598;BME280;62772;48.646;8.906;2023-04-28T22:31:00;96005.63;;;11.45;100.00
4598;BME280;62772;48.646;8.906;2023-04-28T22:36:01;96014.66;;;10.93;100.00
4598;BME280;62772;48.646;8.906;2023-04-28T22:41:02;96013.00;;;11.18;100.00
4598;BME280;62772;48.646;8.906;2023-04-28T22:46:02;96002.97;;;11.06;100.00
4598;BME280;62772;48.646;8.906;2023-04-28T22:51:03;96004.00;;;11.23;100.00
4598;BME280;62772;48.646;8.906;2023-04-28T22:56:03;96002.34;;;10.36;100.00
4598;BME280;62772;48.646;8.906;2023-04-28T23:01:04;96001.84;;;10.69;100.00
4598;BME280;62772;48.646;8.906;2023-04-28T23:06:04;96005.16;;;9.96;100.00
4598;BME280;62772;48.646;8.906;2023-04-28T23:11:05;96008.72;;;9.74;100.00
4598;BME280;62772;48.646;8.906;2023-04-28T23:16:06;96012.19;;;9.74;100.00
4598;BME280;62772;48.646;8.906;2023-04-28T23:21:06;96012.25;;;9.34;100.00
4598;BME280;62772;48.646;8.906;2023-04-28T23:26:07;96005.84;;;9.44;100.00
4598;BME280;62772;48.646;8.906;2023-04-28T23:31:07;96004.84;;;9.31;100.00
4598;BME280;62772;48.646;8.906;2023-04-28T23:36:08;95999.06;;;9.29;100.00
4598;BME280;62772;48.646;8.906;2023-04-28T23:41:08;96012.81;;;9.22;100.00
4598;BME280;62772;48.646;8.906;2023-04-28T23:46:08;96003.69;;;9.55;100.00
4598;BME280;62772;48.646;8.906;2023-04-28T23:51:09;96000.19;;;9.54;100.00
4598;BME280;62772;48.646;8.906;2023-04-28T23:56:10;95997.09;;;9.61;100.00
